sensor_id;sensor_type;location;lat;lon;timestamp;temperature;humidity
24992;DHT22;13014;48.356;10.884;2022-10-29T04:06:28;11.50;72.30
24992;DHT22;13014;48.356;10.884;2022-10-29T04:06:59;11.50;65.70
24992;DHT22;13014;48.356;10.884;2022-10-29T04:07:29;11.50;60.70
24992;DHT22;13014;48.356;10.884;2022-10-29T04:08:00;11.50;60.60
24992;DHT22;13014;48.356;10.884;2022-10-29T04:08:31;11.50;51.00
24992;DHT22;13014;48.356;10.884;2022-10-29T04:09:01;11.50;54.00
24992;DHT22;13014;48.356;10.884;2022-10-29T04:09:32;11.50;55.20
24992;DHT22;13014;48.356;10.884;2022-10-29T04:10:02;11.50;51.60
24992;DHT22;13014;48.356;10.884;2022-10-29T04:10:33;11.50;54.00
24992;DHT22;13014;48.356;10.884;2022-10-29T04:11:03;11.50;50.80
24992;DHT22;13014;48.356;10.884;2022-10-29T04:11:34;11.60;48.90
24992;DHT22;13014;48.356;10.884;2022-10-29T04:12:05;11.60;47.40
24992;DHT22;13014;48.356;10.884;2022-10-29T04:12:35;11.60;47.20
24992;DHT22;13014;48.356;10.884;2022-10-29T04:13:06;11.60;48.00
24992;DHT22;13014;48.356;10.884;2022-10-29T04:13:36;11.60;47.10
24992;DHT22;13014;48.356;10.884;2022-10-29T04:14:07;11.60;45.80
24992;DHT22;13014;48.356;10.884;2022-10-29T04:14:37;11.60;46.20
24992;DHT22;13014;48.356;10.884;2022-10-29T04:15:09;11.60;47.40
24992;DHT22;13014;48.356;10.884;2022-10-29T04:15:39;11.60;44.70
24992;DHT22;13014;48.356;10.884;2022-10-29T04:16:10;11.60;46.90
24992;DHT22;13014;48.356;10.884;2022-10-29T04:16:40;11.60;49.10
24992;DHT22;13014;48.356;10.884;2022-10-29T04:17:11;11.60;41.20
24992;DHT22;13014;48.356;10.884;2022-10-29T04:17:42;11.60;46.00
24992;DHT22;13014;48.356;10.884;2022-10-29T04:18:12;11.60;46.20
24992;DHT22;13014;48.356;10.884;2022-10-29T04:18:45;11.50;47.70
24992;DHT22;13014;48.356;10.884;2022-10-29T04:19:15;11.50;45.60
24992;DHT22;13014;48.356;10.884;2022-10-29T04:19:46;11.50;49.40
24992;DHT22;13014;48.356;10.884;2022-10-29T04:20:16;11.50;50.20
24992;DHT22;13014;48.356;10.884;2022-10-29T04:20:47;11.50;47.80
24992;DHT22;13014;48.356;10.884;2022-10-29T04:21:17;11.50;51.80
24992;DHT22;13014;48.356;10.884;2022-10-29T04:21:48;11.50;50.30
24992;DHT22;13014;48.356;10.884;2022-10-29T04:22:18;11.50;54.50
24992;DHT22;13014;48.356;10.884;2022-10-29T04:22:49;11.50;53.40
24992;DHT22;13014;48.356;10.884;2022-10-29T04:23:20;11.50;55.60
24992;DHT22;13014;48.356;10.884;2022-10-29T04:23:51;11.50;53.30
24992;DHT22;13014;48.356;10.884;2022-10-29T04:24:21;11.40;56.80
24992;DHT22;13014;48.356;10.884;2022-10-29T04:24:52;11.40;52.40
24992;DHT22;13014;48.356;10.884;2022-10-29T04:25:22;11.40;54.60
24992;DHT22;13014;48.356;10.884;2022-10-29T04:25:54;11.40;60.40
24992;DHT22;13014;48.356;10.884;2022-10-29T04:26:25;11.40;61.60
24992;DHT22;13014;48.356;10.884;2022-10-29T04:26:55;11.40;61.50
24992;DHT22;13014;48.356;10.884;2022-10-29T04:27:26;11.40;56.50
24992;DHT22;13014;48.356;10.884;2022-10-29T04:27:57;11.40;55.40
24992;DHT22;13014;48.356;10.884;2022-10-29T04:28:28;11.40;55.20
24992;DHT22;13014;48.356;10.884;2022-10-29T04:28:58;11.40;57.50
24992;DHT22;13014;48.356;10.884;2022-10-29T04:29:29;11.40;56.50
24992;DHT22;13014;48.356;10.884;2022-10-29T04:29:59;11.40;57.30
24992;DHT22;13014;48.356;10.884;2022-10-29T04:30:30;11.40;61.20
24992;DHT22;13014;48.356;10.884;2022-10-29T04:31:04;11.40;58.90
24992;DHT22;13014;48.356;10.884;2022-10-29T04:31:35;11.40;59.40
24992;DHT22;13014;48.356;10.884;2022-10-29T04:32:06;11.40;63.40
24992;DHT22;13014;48.356;10.884;2022-10-29T04:32:36;11.40;62.50
24992;DHT22;13014;48.356;10.884;2022-10-29T04:33:07;11.40;60.90
24992;DHT22;13014;48.356;10.884;2022-10-29T04:33:37;11.40;59.60
24992;DHT22;13014;48.356;10.884;2022-10-29T04:34:08;11.40;58.40
24992;DHT22;13014;48.356;10.884;2022-10-29T04:34:38;11.40;58.60
24992;DHT22;13014;48.356;10.884;2022-10-29T04:35:09;11.40;54.30
24992;DHT22;13014;48.356;10.884;2022-10-29T04:35:39;11.40;55.00
24992;DHT22;13014;48.356;10.884;2022-10-29T04:36:10;11.40;53.30
24992;DHT22;13014;48.356;10.884;2022-10-29T04:36:41;11.40;53.30
24992;DHT22;13014;48.356;10.884;2022-10-29T04:37:11;11.40;53.30
24992;DHT22;13014;48.356;10.884;2022-10-29T04:37:42;11.50;49.10
24992;DHT22;13014;48.356;10.884;2022-10-29T04:38:12;11.40;49.70
24992;DHT22;13014;48.356;10.884;2022-10-29T04:38:43;11.40;50.60
24992;DHT22;13014;48.356;10.884;2022-10-29T04:39:13;11.40;54.70
24992;DHT22;13014;48.356;10.884;2022-10-29T04:39:44;11.40;55.30
24992;DHT22;13014;48.356;10.884;2022-10-29T04:40:15;11.50;57.00
24992;DHT22;13014;48.356;10.884;2022-10-29T04:40:46;11.50;55.60
24992;DHT22;13014;48.356;10.884;2022-10-29T04:41:16;11.50;52.50
24992;DHT22;13014;48.356;10.884;2022-10-29T04:41:47;11.50;54.00
24992;DHT22;13014;48.356;10.884;2022-10-29T04:42:18;11.50;52.50
24992;DHT22;13014;48.356;10.884;2022-10-29T04:42:49;11.50;53.10
24992;DHT22;13014;48.356;10.884;2022-10-29T04:43:20;11.50;51.50
24992;DHT22;13014;48.356;10.884;2022-10-29T04:43:50;11.50;51.90
24992;DHT22;13014;48.356;10.884;2022-10-29T04:44:21;11.50;49.50
24992;DHT22;13014;48.356;10.884;2022-10-29T04:44:51;11.40;48.30
24992;DHT22;13014;48.356;10.884;2022-10-29T04:45:22;11.50;51.50
24992;DHT22;13014;48.356;10.884;2022-10-29T04:45:53;11.40;53.20
24992;DHT22;13014;48.356;10.884;2022-10-29T04:46:23;11.40;57.90
24992;DHT22;13014;48.356;10.884;2022-10-29T04:46:54;11.50;57.00
24992;DHT22;13014;48.356;10.884;2022-10-29T04:47:24;11.40;53.70
24992;DHT22;13014;48.356;10.884;2022-10-29T04:47:58;11.40;53.50
24992;DHT22;13014;48.356;10.884;2022-10-29T04:48:30;11.40;54.50
24992;DHT22;13014;48.356;10.884;2022-10-29T04:49:00;11.40;56.20
24992;DHT22;13014;48.356;10.884;2022-10-29T04:49:31;11.40;48.70
24992;DHT22;13014;48.356;10.884;2022-10-29T04:50:01;11.40;36.10
24992;DHT22;13014;48.356;10.884;2022-10-29T04:50:32;11.50;37.40
24992;DHT22;13014;48.356;10.884;2022-10-29T04:51:03;11.40;45.00
24992;DHT22;13014;48.356;10.884;2022-10-29T04:51:33;11.40;46.70
24992;DHT22;13014;48.356;10.884;2022-10-29T04:52:04;11.40;43.40
24992;DHT22;13014;48.356;10.884;2022-10-29T04:52:35;11.40;37.40
24992;DHT22;13014;48.356;10.884;2022-10-29T04:53:05;11.40;26.60
24992;DHT22;13014;48.356;10.884;2022-10-29T04:53:38;11.50;30.30
24992;DHT22;13014;48.356;10.884;2022-10-29T04:54:09;11.50;30.30
24992;DHT22;13014;48.356;10.884;2022-10-29T04:54:39;11.50;35.30
24992;DHT22;13014;48.356;10.884;2022-10-29T04:55:10;11.50;31.60
24992;DHT22;13014;48.356;10.884;2022-10-29T04:55:40;11.40;28.90
24992;DHT22;13014;48.356;10.884;2022-10-29T04:56:11;11.50;29.30
24992;DHT22;13014;48.356;10.884;2022-10-29T04:56:41;11.50;26.70
24992;DHT22;13014;48.356;10.884;2022-10-29T04:57:12;11.50;25.00
24992;DHT22;13014;48.356;10.884;2022-10-29T04:57:47;11.50;21.70
24992;DHT22;13014;48.356;10.884;2022-10-29T04:58:18;11.50;20.60
24992;DHT22;13014;48.356;10.884;2022-10-29T04:58:49;11.50;17.60
24992;DHT22;13014;48.356;10.884;2022-10-29T04:59:20;11.50;17.30
24992;DHT22;13014;48.356;10.884;2022-10-29T04:59:51;11.50;17.10
24992;DHT22;13014;48.356;10.884;2022-10-29T05:00:21;11.60;15.50
24992;DHT22;13014;48.356;10.884;2022-10-29T05:00:52;11.60;11.80
24992;DHT22;13014;48.356;10.884;2022-10-29T05:01:23;11.60;11.50
24992;DHT22;13014;48.356;10.884;2022-10-29T05:01:53;11.60;11.60
24992;DHT22;13014;48.356;10.884;2022-10-29T05:02:24;11.60;7.90
24992;DHT22;13014;48.356;10.884;2022-10-29T05:02:54;11.60;1.00
24992;DHT22;13014;48.356;10.884;2022-10-29T05:03:25;11.60;1.00
24992;DHT22;13014;48.356;10.884;2022-10-29T05:03:55;11.60;1.00
24992;DHT22;13014;48.356;10.884;2022-10-29T05:04:26;11.70;1.00
24992;DHT22;13014;48.356;10.884;2022-10-29T05:04:58;11.70;1.00
24992;DHT22;13014;48.356;10.884;2022-10-29T05:05:29;11.70;1.00
24992;DHT22;13014;48.356;10.884;2022-10-29T05:06:03;11.70;1.00
24992;DHT22;13014;48.356;10.884;2022-10-29T05:06:33;11.70;1.00
24992;DHT22;13014;48.356;10.884;2022-10-29T05:07:04;11.70;1.00
24992;DHT22;13014;48.356;10.884;2022-10-29T05:07:34;11.70;1.00
24992;DHT22;13014;48.356;10.884;2022-10-29T05:08:05;11.70;1.00
24992;DHT22;13014;48.356;10.884;2022-10-29T05:08:36;11.80;1.00
24992;DHT22;13014;48.356;10.884;2022-10-29T05:09:06;11.80;1.00
24992;DHT22;13014;48.356;10.884;2022-10-29T05:09:37;11.80;1.00
24992;DHT22;13014;48.356;10.884;2022-10-29T05:10:07;11.80;1.00
24992;DHT22;13014;48.356;10.884;2022-10-29T05:10:38;11.80;1.00
24992;DHT22;13014;48.356;10.884;2022-10-29T05:11:09;11.80;1.00
24992;DHT22;13014;48.356;10.884;2022-10-29T05:11:40;11.80;1.00
24992;DHT22;13014;48.356;10.884;2022-10-29T05:12:10;11.80;1.00
24992;DHT22;13014;48.356;10.884;2022-10-29T05:12:41;11.90;1.00
24992;DHT22;13014;48.356;10.884;2022-10-29T05:13:11;11.90;1.00
24992;DHT22;13014;48.356;10.884;2022-10-29T05:13:42;11.90;1.00
24992;DHT22;13014;48.356;10.884;2022-10-29T05:14:14;11.90;1.00
24992;DHT22;13014;48.356;10.884;2022-10-29T05:14:45;11.90;1.00
24992;DHT22;13014;48.356;10.884;2022-10-29T05:15:15;12.00;1.00
24992;DHT22;13014;48.356;10.884;2022-10-29T05:15:49;12.00;1.00
24992;DHT22;13014;48.356;10.884;2022-10-29T05:16:20;12.00;1.00
24992;DHT22;13014;48.356;10.884;2022-10-29T05:16:51;12.00;1.00
24992;DHT22;13014;48.356;10.884;2022-10-29T05:17:21;12.00;1.00
24992;DHT22;13014;48.356;10.884;2022-10-29T05:17:52;12.00;1.00
24992;DHT22;13014;48.356;10.884;2022-10-29T05:18:22;12.00;1.00
24992;DHT22;13014;48.356;10.884;2022-10-29T05:18:53;12.00;1.00
24992;DHT22;13014;48.356;10.884;2022-10-29T05:19:23;12.00;1.00
24992;DHT22;13014;48.356;10.884;2022-10-29T05:19:54;12.00;1.00
24992;DHT22;13014;48.356;10.884;2022-10-29T05:20:25;12.00;1.00
24992;DHT22;13014;48.356;10.884;2022-10-29T05:20:55;12.10;1.00
24992;DHT22;13014;48.356;10.884;2022-10-29T05:21:26;12.00;1.00
24992;DHT22;13014;48.356;10.884;2022-10-29T05:21:57;12.10;1.00
24992;DHT22;13014;48.356;10.884;2022-10-29T05:22:27;12.10;1.00
24992;DHT22;13014;48.356;10.884;2022-10-29T05:23:28;12.10;1.00
24992;DHT22;13014;48.356;10.884;2022-10-29T05:23:59;12.10;1.00
24992;DHT22;13014;48.356;10.884;2022-10-29T05:24:29;12.10;1.00
24992;DHT22;13014;48.356;10.884;2022-10-29T05:25:00;12.10;1.00
24992;DHT22;13014;48.356;10.884;2022-10-29T05:25:31;12.10;1.00
24992;DHT22;13014;48.356;10.884;2022-10-29T05:26:02;12.10;1.00
24992;DHT22;13014;48.356;10.884;2022-10-29T05:26:33;12.10;1.00
24992;DHT22;13014;48.356;10.884;2022-10-29T05:27:04;12.10;1.00
24992;DHT22;13014;48.356;10.884;2022-10-29T05:27:35;12.10;1.00
24992;DHT22;13014;48.356;10.884;2022-10-29T05:28:08;12.10;1.00
24992;DHT22;13014;48.356;10.884;2022-10-29T05:28:38;12.10;1.00
24992;DHT22;13014;48.356;10.884;2022-10-29T05:29:09;12.10;1.00
24992;DHT22;13014;48.356;10.884;2022-10-29T05:29:39;12.20;1.00
24992;DHT22;13014;48.356;10.884;2022-10-29T05:30:10;12.20;1.00
24992;DHT22;13014;48.356;10.884;2022-10-29T05:30:41;12.20;1.00
24992;DHT22;13014;48.356;10.884;2022-10-29T05:31:13;12.20;1.00
24992;DHT22;13014;48.356;10.884;2022-10-29T05:31:43;12.20;1.00
24992;DHT22;13014;48.356;10.884;2022-10-29T05:32:14;12.20;1.00
24992;DHT22;13014;48.356;10.884;2022-10-29T05:32:44;12.20;1.00
24992;DHT22;13014;48.356;10.884;2022-10-29T05:33:22;12.30;1.00
24992;DHT22;13014;48.356;10.884;2022-10-29T05:33:52;12.30;1.00
24992;DHT22;13014;48.356;10.884;2022-10-29T05:34:23;12.30;1.00
24992;DHT22;13014;48.356;10.884;2022-10-29T05:34:54;12.30;1.00
24992;DHT22;13014;48.356;10.884;2022-10-29T05:35:24;12.30;1.00
24992;DHT22;13014;48.356;10.884;2022-10-29T05:35:55;12.30;1.00
24992;DHT22;13014;48.356;10.884;2022-10-29T05:36:25;12.30;1.00
24992;DHT22;13014;48.356;10.884;2022-10-29T05:36:56;12.30;1.00
24992;DHT22;13014;48.356;10.884;2022-10-29T05:37:26;12.40;1.00
24992;DHT22;13014;48.356;10.884;2022-10-29T05:37:57;12.40;1.00
24992;DHT22;13014;48.356;10.884;2022-10-29T05:38:28;12.40;1.00
24992;DHT22;13014;48.356;10.884;2022-10-29T05:38:58;12.40;1.00
24992;DHT22;13014;48.356;10.884;2022-10-29T05:39:29;12.40;1.00
24992;DHT22;13014;48.356;10.884;2022-10-29T05:39:59;12.40;1.00
24992;DHT22;13014;48.356;10.884;2022-10-29T05:40:30;12.40;1.00
24992;DHT22;13014;48.356;10.884;2022-10-29T05:41:00;12.40;1.00
24992;DHT22;13014;48.356;10.884;2022-10-29T05:41:31;12.40;1.00
24992;DHT22;13014;48.356;10.884;2022-10-29T05:42:02;12.50;1.00
24992;DHT22;13014;48.356;10.884;2022-10-29T05:42:32;12.50;1.00
24992;DHT22;13014;48.356;10.884;2022-10-29T05:43:06;12.50;1.00
24992;DHT22;13014;48.356;10.884;2022-10-29T05:43:36;12.50;1.00
24992;DHT22;13014;48.356;10.884;2022-10-29T05:44:07;12.50;1.00
24992;DHT22;13014;48.356;10.884;2022-10-29T05:44:38;12.50;1.00
24992;DHT22;13014;48.356;10.884;2022-10-29T05:45:08;12.50;1.00
24992;DHT22;13014;48.356;10.884;2022-10-29T05:45:39;12.50;1.00
24992;DHT22;13014;48.356;10.884;2022-10-29T05:46:10;12.50;1.00
24992;DHT22;13014;48.356;10.884;2022-10-29T05:46:40;12.50;1.00
24992;DHT22;13014;48.356;10.884;2022-10-29T05:47:11;12.50;1.00
24992;DHT22;13014;48.356;10.884;2022-10-29T05:47:41;12.50;1.00
24992;DHT22;13014;48.356;10.884;2022-10-29T05:48:12;12.50;1.00
24992;DHT22;13014;48.356;10.884;2022-10-29T05:48:43;12.50;1.00
24992;DHT22;13014;48.356;10.884;2022-10-29T05:49:13;12.50;1.00
24992;DHT22;13014;48.356;10.884;2022-10-29T05:49:44;12.50;1.00
24992;DHT22;13014;48.356;10.884;2022-10-29T05:50:14;12.50;1.00
24992;DHT22;13014;48.356;10.884;2022-10-29T05:50:45;12.50;1.00
24992;DHT22;13014;48.356;10.884;2022-10-29T05:51:15;12.60;1.00
24992;DHT22;13014;48.356;10.884;2022-10-29T05:51:46;12.60;1.00
24992;DHT22;13014;48.356;10.884;2022-10-29T05:52:16;12.60;1.00
24992;DHT22;13014;48.356;10.884;2022-10-29T05:52:53;12.60;1.00
24992;DHT22;13014;48.356;10.884;2022-10-29T05:53:23;12.60;1.00
24992;DHT22;13014;48.356;10.884;2022-10-29T05:53:54;12.60;1.00
24992;DHT22;13014;48.356;10.884;2022-10-29T05:54:25;12.60;1.00
24992;DHT22;13014;48.356;10.884;2022-10-29T05:54:55;12.60;1.00
24992;DHT22;13014;48.356;10.884;2022-10-29T05:55:26;12.60;1.00
24992;DHT22;13014;48.356;10.884;2022-10-29T05:55:57;12.60;1.00
24992;DHT22;13014;48.356;10.884;2022-10-29T05:56:27;12.60;1.00
24992;DHT22;13014;48.356;10.884;2022-10-29T05:56:58;12.60;1.00
24992;DHT22;13014;48.356;10.884;2022-10-29T05:57:28;12.60;1.00
24992;DHT22;13014;48.356;10.884;2022-10-29T05:58:03;12.60;1.00
24992;DHT22;13014;48.356;10.884;2022-10-29T05:58:34;12.60;1.00
24992;DHT22;13014;48.356;10.884;2022-10-29T05:59:04;12.60;1.00
24992;DHT22;13014;48.356;10.884;2022-10-29T05:59:35;12.60;1.00
24992;DHT22;13014;48.356;10.884;2022-10-29T06:00:05;12.60;1.00
24992;DHT22;13014;48.356;10.884;2022-10-29T06:00:37;12.60;1.00
24992;DHT22;13014;48.356;10.884;2022-10-29T06:01:09;12.60;1.00
24992;DHT22;13014;48.356;10.884;2022-10-29T06:01:40;12.60;1.00
24992;DHT22;13014;48.356;10.884;2022-10-29T06:02:10;12.60;1.00
24992;DHT22;13014;48.356;10.884;2022-10-29T06:02:44;12.60;1.00
24992;DHT22;13014;48.356;10.884;2022-10-29T06:03:16;12.60;1.00
24992;DHT22;13014;48.356;10.884;2022-10-29T06:03:46;12.60;1.00
24992;DHT22;13014;48.356;10.884;2022-10-29T06:04:17;12.60;1.00
24992;DHT22;13014;48.356;10.884;2022-10-29T06:04:47;12.50;1.00
24992;DHT22;13014;48.356;10.884;2022-10-29T06:05:18;12.60;1.00
24992;DHT22;13014;48.356;10.884;2022-10-29T06:05:49;12.50;1.00
24992;DHT22;13014;48.356;10.884;2022-10-29T06:06:19;12.50;1.00
24992;DHT22;13014;48.356;10.884;2022-10-29T06:06:50;12.50;1.00
24992;DHT22;13014;48.356;10.884;2022-10-29T06:07:20;12.50;1.00
24992;DHT22;13014;48.356;10.884;2022-10-29T06:07:55;12.50;1.00
24992;DHT22;13014;48.356;10.884;2022-10-29T06:08:25;12.50;1.00
24992;DHT22;13014;48.356;10.884;2022-10-29T06:08:58;12.50;1.00
24992;DHT22;13014;48.356;10.884;2022-10-29T06:09:29;12.50;1.00
24992;DHT22;13014;48.356;10.884;2022-10-29T06:09:59;12.50;1.00
24992;DHT22;13014;48.356;10.884;2022-10-29T06:10:30;12.50;1.00
24992;DHT22;13014;48.356;10.884;2022-10-29T06:11:01;12.50;1.00
24992;DHT22;13014;48.356;10.884;2022-10-29T06:11:32;12.50;1.00
24992;DHT22;13014;48.356;10.884;2022-10-29T06:12:02;12.40;1.00
24992;DHT22;13014;48.356;10.884;2022-10-29T06:12:33;12.40;1.00
24992;DHT22;13014;48.356;10.884;2022-10-29T06:13:22;12.50;1.00
24992;DHT22;13014;48.356;10.884;2022-10-29T06:13:55;12.50;1.00
24992;DHT22;13014;48.356;10.884;2022-10-29T06:14:25;12.50;1.00
24992;DHT22;13014;48.356;10.884;2022-10-29T06:14:56;12.50;1.00
24992;DHT22;13014;48.356;10.884;2022-10-29T06:15:26;12.50;1.00
24992;DHT22;13014;48.356;10.884;2022-10-29T06:15:58;12.50;1.00
24992;DHT22;13014;48.356;10.884;2022-10-29T06:16:28;12.40;1.00
24992;DHT22;13014;48.356;10.884;2022-10-29T06:17:00;12.40;1.00
24992;DHT22;13014;48.356;10.884;2022-10-29T06:17:30;12.40;1.00
24992;DHT22;13014;48.356;10.884;2022-10-29T06:18:01;12.50;1.00
24992;DHT22;13014;48.356;10.884;2022-10-29T06:18:31;12.50;1.00
24992;DHT22;13014;48.356;10.884;2022-10-29T06:19:02;12.40;1.00
24992;DHT22;13014;48.356;10.884;2022-10-29T06:19:32;12.50;1.00
24992;DHT22;13014;48.356;10.884;2022-10-29T06:20:03;12.40;1.00
24992;DHT22;13014;48.356;10.884;2022-10-29T06:20:34;12.50;1.00
24992;DHT22;13014;48.356;10.884;2022-10-29T06:21:05;12.50;1.00
24992;DHT22;13014;48.356;10.884;2022-10-29T06:21:35;12.50;1.00
24992;DHT22;13014;48.356;10.884;2022-10-29T06:22:06;12.50;1.00
24992;DHT22;13014;48.356;10.884;2022-10-29T06:22:36;12.50;1.00
24992;DHT22;13014;48.356;10.884;2022-10-29T06:23:08;12.50;1.00
24992;DHT22;13014;48.356;10.884;2022-10-29T06:23:39;12.50;1.00
24992;DHT22;13014;48.356;10.884;2022-10-29T06:24:09;12.40;1.00
24992;DHT22;13014;48.356;10.884;2022-10-29T06:24:40;12.50;1.00
24992;DHT22;13014;48.356;10.884;2022-10-29T06:25:10;12.50;1.00
24992;DHT22;13014;48.356;10.884;2022-10-29T06:25:41;12.50;1.00
24992;DHT22;13014;48.356;10.884;2022-10-29T06:26:11;12.50;1.00
24992;DHT22;13014;48.356;10.884;2022-10-29T06:26:42;12.50;1.00
24992;DHT22;13014;48.356;10.884;2022-10-29T06:27:13;12.50;1.00
24992;DHT22;13014;48.356;10.884;2022-10-29T06:27:43;12.50;1.00
24992;DHT22;13014;48.356;10.884;2022-10-29T06:28:14;12.50;1.00
24992;DHT22;13014;48.356;10.884;2022-10-29T06:28:45;12.50;1.00
24992;DHT22;13014;48.356;10.884;2022-10-29T06:29:16;12.50;1.00
24992;DHT22;13014;48.356;10.884;2022-10-29T06:29:46;12.50;1.00
24992;DHT22;13014;48.356;10.884;2022-10-29T06:30:17;12.50;1.00
24992;DHT22;13014;48.356;10.884;2022-10-29T06:30:48;12.50;1.00
24992;DHT22;13014;48.356;10.884;2022-10-29T06:31:19;12.50;1.00
24992;DHT22;13014;48.356;10.884;2022-10-29T06:31:49;12.50;1.00
24992;DHT22;13014;48.356;10.884;2022-10-29T06:32:20;12.50;1.00
24992;DHT22;13014;48.356;10.884;2022-10-29T06:32:50;12.50;1.00
24992;DHT22;13014;48.356;10.884;2022-10-29T06:33:21;12.50;1.00
24992;DHT22;13014;48.356;10.884;2022-10-29T06:33:53;12.50;1.00
24992;DHT22;13014;48.356;10.884;2022-10-29T06:34:23;12.50;1.00
24992;DHT22;13014;48.356;10.884;2022-10-29T06:34:54;12.50;1.00
24992;DHT22;13014;48.356;10.884;2022-10-29T06:35:24;12.50;1.00
24992;DHT22;13014;48.356;10.884;2022-10-29T06:35:59;12.50;1.00
24992;DHT22;13014;48.356;10.884;2022-10-29T06:36:30;12.50;1.00
24992;DHT22;13014;48.356;10.884;2022-10-29T06:37:00;12.50;1.00
24992;DHT22;13014;48.356;10.884;2022-10-29T06:37:31;12.50;1.00
24992;DHT22;13014;48.356;10.884;2022-10-29T06:38:02;12.60;1.00
24992;DHT22;13014;48.356;10.884;2022-10-29T06:38:33;12.60;1.00
24992;DHT22;13014;48.356;10.884;2022-10-29T06:39:03;12.60;1.00
24992;DHT22;13014;48.356;10.884;2022-10-29T06:39:34;12.50;1.00
24992;DHT22;13014;48.356;10.884;2022-10-29T06:40:04;12.60;1.00
24992;DHT22;13014;48.356;10.884;2022-10-29T06:40:35;12.60;1.00
24992;DHT22;13014;48.356;10.884;2022-10-29T06:41:06;12.60;1.00
24992;DHT22;13014;48.356;10.884;2022-10-29T06:41:36;12.60;1.00
24992;DHT22;13014;48.356;10.884;2022-10-29T06:42:07;12.60;1.00
24992;DHT22;13014;48.356;10.884;2022-10-29T06:42:37;12.60;1.00
24992;DHT22;13014;48.356;10.884;2022-10-29T06:43:08;12.60;1.00
24992;DHT22;13014;48.356;10.884;2022-10-29T06:43:40;12.60;1.00
24992;DHT22;13014;48.356;10.884;2022-10-29T06:44:10;12.60;1.00
24992;DHT22;13014;48.356;10.884;2022-10-29T06:44:41;12.60;1.00
24992;DHT22;13014;48.356;10.884;2022-10-29T06:45:11;12.60;1.00
24992;DHT22;13014;48.356;10.884;2022-10-29T06:45:42;12.60;1.00
24992;DHT22;13014;48.356;10.884;2022-10-29T06:46:13;12.60;1.00
24992;DHT22;13014;48.356;10.884;2022-10-29T06:46:43;12.60;1.00
24992;DHT22;13014;48.356;10.884;2022-10-29T06:47:14;12.70;1.00
24992;DHT22;13014;48.356;10.884;2022-10-29T06:47:44;12.70;1.00
24992;DHT22;13014;48.356;10.884;2022-10-29T06:48:15;12.60;1.00
24992;DHT22;13014;48.356;10.884;2022-10-29T06:48:45;12.70;1.00
24992;DHT22;13014;48.356;10.884;2022-10-29T06:49:16;12.70;1.00
24992;DHT22;13014;48.356;10.884;2022-10-29T06:49:47;12.70;1.00
24992;DHT22;13014;48.356;10.884;2022-10-29T06:50:17;12.70;1.00
24992;DHT22;13014;48.356;10.884;2022-10-29T06:50:48;12.70;1.00
24992;DHT22;13014;48.356;10.884;2022-10-29T06:51:19;12.70;1.00
24992;DHT22;13014;48.356;10.884;2022-10-29T06:51:50;12.70;1.00
24992;DHT22;13014;48.356;10.884;2022-10-29T06:52:20;12.70;1.00
24992;DHT22;13014;48.356;10.884;2022-10-29T06:52:58;12.70;1.00
24992;DHT22;13014;48.356;10.884;2022-10-29T06:53:29;12.80;1.00
24992;DHT22;13014;48.356;10.884;2022-10-29T06:54:00;12.80;1.00
24992;DHT22;13014;48.356;10.884;2022-10-29T06:54:30;12.80;1.00
24992;DHT22;13014;48.356;10.884;2022-10-29T06:55:01;12.80;1.00
24992;DHT22;13014;48.356;10.884;2022-10-29T06:55:32;12.80;1.00
24992;DHT22;13014;48.356;10.884;2022-10-29T06:56:02;12.90;1.00
24992;DHT22;13014;48.356;10.884;2022-10-29T06:56:33;12.90;1.00
24992;DHT22;13014;48.356;10.884;2022-10-29T06:57:03;12.90;1.00
24992;DHT22;13014;48.356;10.884;2022-10-29T06:57:34;12.90;1.00
24992;DHT22;13014;48.356;10.884;2022-10-29T06:58:05;12.90;1.00
24992;DHT22;13014;48.356;10.884;2022-10-29T06:58:36;12.90;1.00
24992;DHT22;13014;48.356;10.884;2022-10-29T06:59:07;12.90;1.00
24992;DHT22;13014;48.356;10.884;2022-10-29T06:59:37;12.90;1.00
24992;DHT22;13014;48.356;10.884;2022-10-29T07:00:08;12.90;1.00
24992;DHT22;13014;48.356;10.884;2022-10-29T07:00:39;12.90;1.00
24992;DHT22;13014;48.356;10.884;2022-10-29T07:01:10;12.90;1.00
24992;DHT22;13014;48.356;10.884;2022-10-29T07:01:40;12.90;1.00
24992;DHT22;13014;48.356;10.884;2022-10-29T07:02:11;13.00;1.00
24992;DHT22;13014;48.356;10.884;2022-10-29T07:02:41;13.00;1.00
24992;DHT22;13014;48.356;10.884;2022-10-29T07:03:12;13.00;1.00
24992;DHT22;13014;48.356;10.884;2022-10-29T07:03:43;13.00;1.00
24992;DHT22;13014;48.356;10.884;2022-10-29T07:04:14;13.00;1.00
24992;DHT22;13014;48.356;10.884;2022-10-29T07:04:47;13.00;1.00
24992;DHT22;13014;48.356;10.884;2022-10-29T07:05:17;13.10;1.00
24992;DHT22;13014;48.356;10.884;2022-10-29T07:05:53;13.10;1.00
24992;DHT22;13014;48.356;10.884;2022-10-29T07:06:24;13.20;1.00
24992;DHT22;13014;48.356;10.884;2022-10-29T07:06:54;13.20;1.00
24992;DHT22;13014;48.356;10.884;2022-10-29T07:07:26;13.20;1.00
24992;DHT22;13014;48.356;10.884;2022-10-29T07:07:57;13.20;1.00
24992;DHT22;13014;48.356;10.884;2022-10-29T07:08:28;13.30;1.00
24992;DHT22;13014;48.356;10.884;2022-10-29T07:08:59;13.20;1.00
24992;DHT22;13014;48.356;10.884;2022-10-29T07:09:30;13.30;1.00
24992;DHT22;13014;48.356;10.884;2022-10-29T07:10:00;13.30;1.00
24992;DHT22;13014;48.356;10.884;2022-10-29T07:10:31;13.20;1.00
24992;DHT22;13014;48.356;10.884;2022-10-29T07:11:02;13.20;1.00
24992;DHT22;13014;48.356;10.884;2022-10-29T07:11:33;13.20;1.00
24992;DHT22;13014;48.356;10.884;2022-10-29T07:12:04;13.30;1.00
24992;DHT22;13014;48.356;10.884;2022-10-29T07:12:41;13.30;1.00
24992;DHT22;13014;48.356;10.884;2022-10-29T07:13:12;13.30;1.00
24992;DHT22;13014;48.356;10.884;2022-10-29T07:13:43;13.30;1.00
24992;DHT22;13014;48.356;10.884;2022-10-29T07:14:14;13.30;1.00
24992;DHT22;13014;48.356;10.884;2022-10-29T07:14:44;13.30;1.00
24992;DHT22;13014;48.356;10.884;2022-10-29T07:15:15;13.30;1.00
24992;DHT22;13014;48.356;10.884;2022-10-29T07:15:45;13.30;1.00
24992;DHT22;13014;48.356;10.884;2022-10-29T07:16:16;13.30;1.00
24992;DHT22;13014;48.356;10.884;2022-10-29T07:16:46;13.30;1.00
24992;DHT22;13014;48.356;10.884;2022-10-29T07:17:17;13.30;1.00
24992;DHT22;13014;48.356;10.884;2022-10-29T07:17:57;13.30;1.00
24992;DHT22;13014;48.356;10.884;2022-10-29T07:18:28;13.30;1.00
24992;DHT22;13014;48.356;10.884;2022-10-29T07:18:59;13.40;1.00
24992;DHT22;13014;48.356;10.884;2022-10-29T07:19:30;13.40;1.00
24992;DHT22;13014;48.356;10.884;2022-10-29T07:20:00;13.40;1.00
24992;DHT22;13014;48.356;10.884;2022-10-29T07:20:32;13.50;1.00
24992;DHT22;13014;48.356;10.884;2022-10-29T07:21:03;13.50;1.00
24992;DHT22;13014;48.356;10.884;2022-10-29T07:21:34;13.50;1.00